Time;durP1;ratioP1;P1;durP2;ratioP2;P2;SDS_P1;SDS_P2;PMS_P1;PMS_P2;Temp;Humidity;BMP_temperature;BMP_pressure;BME280_temperature;BME280_humidity;BME280_pressure;Samples;Min_cycle;Max_cycle;Signal;HPM_P1;HPM_P2
2021/07/22 00:02:07;;;;;;;16.52;9.95;;;17.30;89.90;;;17.16;81.10;101194.63;5089357;28;20054;-77
2021/07/22 00:04:34;;;;;;;16.00;9.32;;;17.30;90.00;;;17.16;81.19;101191.88;5089040;28;20052;-77
2021/07/22 00:07:01;;;;;;;14.38;8.88;;;17.30;90.00;;;17.19;81.46;101194.22;5088412;28;20132;-77
2021/07/22 00:09:30;;;;;;;17.05;9.82;;;17.30;89.90;;;17.25;81.08;101199.91;5089016;28;20105;-77
2021/07/22 00:11:57;;;;;;;15.65;9.25;;;17.40;89.90;;;17.28;81.10;101194.81;5088255;28;20058;-77
2021/07/22 00:14:28;;;;;;;14.68;8.93;;;17.40;89.90;;;17.26;81.33;101193.34;5091669;28;20097;-78
2021/07/22 00:16:55;;;;;;;16.90;9.32;;;17.40;90.10;;;17.31;81.13;101196.31;5108560;28;20130;-78
2021/07/22 00:19:22;;;;;;;13.60;8.75;;;17.40;90.10;;;17.32;81.18;101187.00;5108890;28;20087;-77
2021/07/22 00:21:50;;;;;;;14.02;8.80;;;17.40;90.40;;;17.32;81.47;101187.84;5109096;28;20071;-77
2021/07/22 00:24:17;;;;;;;16.48;9.63;;;17.40;90.60;;;17.32;81.88;101187.00;5109092;28;20131;-77
2021/07/22 00:26:45;;;;;;;15.82;10.05;;;17.40;90.50;;;17.34;81.89;101184.88;5108237;28;20067;-77
2021/07/22 00:29:13;;;;;;;16.58;10.13;;;17.40;90.60;;;17.38;81.57;101181.50;5109229;28;20043;-77
2021/07/22 00:31:40;;;;;;;17.42;11.02;;;17.40;90.60;;;17.41;81.28;101185.72;5108843;28;20036;-78
2021/07/22 00:34:08;;;;;;;15.63;9.27;;;17.50;90.30;;;17.36;81.63;101193.75;5109053;28;20061;-77
2021/07/22 00:36:35;;;;;;;15.68;9.73;;;17.50;90.20;;;17.36;81.42;101183.63;5108226;28;20039;-78
2021/07/22 00:39:02;;;;;;;15.85;9.77;;;17.60;89.90;;;17.44;81.27;101176.19;5109059;28;20101;-77
2021/07/22 00:41:30;;;;;;;17.13;10.20;;;17.60;89.90;;;17.47;81.42;101184.88;5107175;28;20132;-78
2021/07/22 00:44:01;;;;;;;16.38;10.02;;;17.70;90.00;;;17.45;81.31;101175.13;5107399;28;20084;-77
2021/07/22 00:46:36;;;;;;;16.95;10.15;;;17.70;89.70;;;17.49;80.98;101180.00;5106648;28;20047;-78
2021/07/22 00:49:11;;;;;;;22.60;10.10;;;17.70;89.60;;;17.51;80.95;101177.03;5108868;28;20673;-77
2021/07/22 00:51:39;;;;;;;20.02;10.05;;;17.70;89.70;;;17.53;81.10;101173.00;5108862;28;20108;-78
2021/07/22 00:54:09;;;;;;;17.15;10.20;;;17.70;89.80;;;17.53;80.99;101172.16;5107211;28;20044;-78
2021/07/22 00:56:38;;;;;;;19.98;10.30;;;17.70;89.60;;;17.53;81.56;101173.00;5106482;28;20051;-77
2021/07/22 00:59:08;;;;;;;16.10;10.00;;;17.70;90.00;;;17.52;81.69;101163.06;5106659;28;20618;-78
2021/07/22 01:01:38;;;;;;;17.75;10.10;;;17.70;90.10;;;17.54;81.77;101171.09;5107207;28;20526;-77
2021/07/22 01:04:06;;;;;;;16.58;10.15;;;17.80;90.00;;;17.51;82.33;101161.34;5088007;28;20128;-78
2021/07/22 01:06:33;;;;;;;17.40;9.70;;;17.70;90.40;;;17.49;82.07;101166.22;5086174;28;20058;-78
2021/07/22 01:09:05;;;;;;;16.52;10.02;;;17.70;90.10;;;17.48;82.36;101161.81;5086862;28;20047;-78
2021/07/22 01:11:35;;;;;;;18.60;10.45;;;17.70;90.10;;;17.46;82.03;101166.69;5088294;28;20119;-78
2021/07/22 01:14:03;;;;;;;15.68;9.95;;;17.70;89.90;;;17.44;82.21;101162.44;5086786;28;20461;-77
2021/07/22 01:16:33;;;;;;;16.65;10.77;;;17.70;90.00;;;17.45;81.64;101162.22;5085760;28;20044;-78
2021/07/22 01:19:01;;;;;;;16.40;10.05;;;17.70;90.00;;;17.46;81.80;101161.16;5086868;28;20044;-77
2021/07/22 01:21:30;;;;;;;16.10;9.35;;;17.70;90.00;;;17.46;81.69;101155.66;5086479;28;20089;-78
2021/07/22 01:23:58;;;;;;;18.55;10.82;;;17.70;90.00;;;17.48;81.53;101163.72;5088402;28;20103;-78
2021/07/22 01:26:34;;;;;;;17.15;10.18;;;17.70;90.00;;;17.48;81.60;101163.72;5091146;28;20044;-78
2021/07/22 01:29:11;;;;;;;14.73;9.32;;;17.70;89.90;;;17.46;81.62;101161.16;5090715;28;20093;-78
2021/07/22 01:31:38;;;;;;;15.52;10.35;;;17.70;89.90;;;17.44;81.88;101168.78;5091967;28;20048;-78
2021/07/22 01:34:06;;;;;;;15.52;10.05;;;17.70;90.20;;;17.46;81.83;101163.91;5092146;28;20105;-78
2021/07/22 01:36:35;;;;;;;15.73;10.23;;;17.60;90.20;;;17.45;81.84;101164.97;5091065;28;20135;-78
2021/07/22 01:39:05;;;;;;;20.20;10.18;;;17.60;90.20;;;17.37;81.83;101152.28;5092147;28;20118;-77
2021/07/22 01:41:33;;;;;;;19.15;10.50;;;17.60;90.10;;;17.37;81.71;101157.78;5091700;28;20048;-78
2021/07/22 01:44:01;;;;;;;17.58;10.23;;;17.60;90.00;;;17.33;81.67;101150.19;5090495;28;20052;-77
2021/07/22 01:46:29;;;;;;;15.05;10.20;;;17.50;90.00;;;17.31;81.68;101150.41;5076633;22;20052;-89
2021/07/22 01:48:57;;;;;;;17.38;10.05;;;17.40;90.00;;;17.31;81.36;101153.16;5051540;28;20049;-90
2021/07/22 01:51:25;;;;;;;16.50;10.25;;;17.40;90.10;;;17.31;81.27;101157.81;5050062;28;20040;-89
2021/07/22 01:54:00;;;;;;;15.45;9.90;;;17.40;90.00;;;17.30;81.03;101156.09;5049890;28;20053;-89
2021/07/22 01:56:27;;;;;;;16.73;10.32;;;17.30;90.30;;;17.27;81.13;101146.38;5050703;28;20413;-88
2021/07/22 01:58:55;;;;;;;15.93;9.68;;;17.30;90.40;;;17.20;81.47;101146.38;5051122;28;20075;-90
2021/07/22 02:01:25;;;;;;;17.45;9.98;;;17.30;90.50;;;17.18;81.58;101151.25;5049630;28;20045;-88
2021/07/22 02:03:59;;;;;;;16.77;10.70;;;17.20;90.50;;;17.18;81.33;101147.66;5049993;28;20077;-88
2021/07/22 02:06:27;;;;;;;15.82;9.88;;;17.20;90.50;;;17.14;81.24;101147.22;5049152;28;20059;-89
2021/07/22 02:08:56;;;;;;;14.65;9.80;;;17.20;90.50;;;17.14;81.53;101152.72;5049707;28;20106;-89
2021/07/22 02:11:26;;;;;;;15.50;9.98;;;17.10;90.70;;;17.15;81.31;101150.81;5049565;28;20452;-88
2021/07/22 02:13:55;;;;;;;17.70;8.93;;;17.10;90.80;;;17.13;81.42;101151.03;5049574;28;20063;-89
2021/07/22 02:16:24;;;;;;;14.50;9.73;;;17.00;90.70;;;17.09;81.26;101148.94;5049113;28;20131;-89
2021/07/22 02:18:52;;;;;;;15.63;9.55;;;17.00;90.90;;;17.07;81.27;101154.63;5049821;28;20040;-88
2021/07/22 02:21:25;;;;;;;16.75;10.68;;;17.00;91.00;;;17.07;81.11;101151.88;5049401;28;20052;-88
2021/07/22 02:23:53;;;;;;;16.98;9.82;;;16.90;91.10;;;17.03;81.22;101144.28;5049596;28;20587;-88
2021/07/22 02:26:41;;;;;;;15.90;9.73;;;16.90;91.20;;;16.98;81.49;101147.66;5050299;28;20063;-90
2021/07/22 02:29:09;;;;;;;16.85;9.65;;;16.90;91.30;;;16.92;81.51;101148.50;5051107;28;20119;-89
2021/07/22 02:31:37;;;;;;;13.73;8.88;;;16.90;91.10;;;16.93;81.45;101151.03;5049340;28;20045;-89
2021/07/22 02:34:08;;;;;;;19.23;10.02;;;16.90;91.10;;;16.94;81.35;101146.38;5049086;28;20052;-88
2021/07/22 02:36:35;;;;;;;15.35;9.70;;;16.90;91.20;;;16.93;81.28;101144.72;5047522;28;20433;-88
2021/07/22 02:39:09;;;;;;;16.80;9.55;;;16.80;91.20;;;16.91;81.42;101153.16;5050890;28;20769;-88
2021/07/22 02:41:37;;;;;;;13.63;9.38;;;16.80;91.30;;;16.89;81.43;101148.94;5048919;28;20069;-89
2021/07/22 02:44:08;;;;;;;18.42;9.93;;;16.80;91.20;;;16.86;81.48;101150.19;5049331;28;20072;-89
2021/07/22 02:46:41;;;;;;;17.15;9.50;;;16.80;91.30;;;16.89;81.50;101160.78;5044379;28;20383;-88
2021/07/22 02:49:10;;;;;;;16.98;9.80;;;16.80;91.40;;;16.86;81.39;101152.94;5029427;28;20197;-89
2021/07/22 02:51:38;;;;;;;14.73;9.68;;;16.70;91.50;;;16.86;81.25;101160.34;5030338;28;20049;-89
2021/07/22 02:54:12;;;;;;;16.20;9.85;;;16.70;91.60;;;16.83;81.42;101152.50;5029109;28;20199;-88
2021/07/22 02:56:40;;;;;;;14.82;9.57;;;16.70;91.60;;;16.82;81.57;101154.41;5041513;28;20053;-88
2021/07/22 02:59:14;;;;;;;14.93;9.52;;;16.70;91.70;;;16.79;81.35;101150.16;5048820;28;20048;-89
2021/07/22 03:01:43;;;;;;;18.25;10.02;;;16.70;91.60;;;16.79;81.51;101150.16;5048599;28;20513;-88
2021/07/22 03:04:17;;;;;;;14.90;8.80;;;16.60;91.50;;;16.76;81.63;101155.25;5048695;28;20045;-89
2021/07/22 03:06:53;;;;;;;16.10;9.82;;;16.60;91.60;;;16.74;81.61;101160.94;5047894;28;20056;-89
2021/07/22 03:09:21;;;;;;;16.08;10.05;;;16.60;91.70;;;16.73;81.66;101151.00;5048589;28;20143;-88
2021/07/22 03:11:50;;;;;;;13.50;9.02;;;16.60;91.70;;;16.72;81.61;101148.47;5048661;28;20041;-88
2021/07/22 03:14:21;;;;;;;17.33;9.48;;;16.60;91.70;;;16.71;81.88;101152.25;5048364;28;20080;-89
2021/07/22 03:16:49;;;;;;;14.50;8.98;;;16.60;91.90;;;16.72;81.80;101152.06;5047885;28;20076;-89
2021/07/22 03:19:19;;;;;;;15.35;9.15;;;16.60;91.90;;;16.69;82.13;101144.22;5050054;28;20048;-88
2021/07/22 03:22:08;;;;;;;16.25;9.63;;;16.60;92.10;;;16.70;82.18;101153.34;5048577;28;20067;-89
2021/07/22 03:24:51;;;;;;;14.88;9.73;;;16.60;92.10;;;16.65;82.41;101159.44;5048251;28;20056;-88
2021/07/22 03:27:37;;;;;;;14.05;9.50;;;16.60;92.10;;;16.68;82.19;101155.41;5049181;28;20075;-89
2021/07/22 03:30:10;;;;;;;16.02;8.80;;;16.60;92.10;;;16.66;82.31;101150.16;5048376;28;20044;-88
2021/07/22 03:32:45;;;;;;;15.68;9.38;;;16.60;92.20;;;16.67;82.33;101146.34;5048178;28;20057;-88
2021/07/22 03:35:13;;;;;;;15.18;9.80;;;16.60;92.30;;;16.65;82.58;101145.69;5048071;28;20053;-89
2021/07/22 03:37:40;;;;;;;17.95;9.95;;;16.60;92.30;;;16.62;82.67;101140.63;5048864;28;20037;-89
2021/07/22 03:40:15;;;;;;;14.40;9.15;;;16.60;92.40;;;16.59;82.59;101139.13;5048021;28;20060;-89
2021/07/22 03:42:43;;;;;;;23.20;8.95;;;16.60;92.40;;;16.63;82.83;101145.06;5047828;28;20057;-88
2021/07/22 03:45:17;;;;;;;15.50;9.30;;;16.60;92.50;;;16.64;82.51;101137.66;5047806;28;20098;-90
2021/07/22 03:47:48;;;;;;;16.45;9.25;;;16.60;92.50;;;16.64;82.62;101145.91;5046726;28;20044;-89
2021/07/22 03:50:17;;;;;;;18.25;9.13;;;16.50;92.50;;;16.60;82.34;101139.97;5047967;28;20145;-89
2021/07/22 03:52:45;;;;;;;15.63;9.45;;;16.60;92.40;;;16.56;82.57;101138.72;5047998;28;20402;-90
2021/07/22 03:55:14;;;;;;;15.30;9.18;;;16.50;92.30;;;16.58;82.86;101131.09;5047761;28;20059;-88
2021/07/22 03:58:12;;;;;;;15.05;9.88;;;16.50;92.40;;;16.59;82.74;101138.31;5048712;28;20045;-89
2021/07/22 04:00:54;;;;;;;17.67;10.02;;;16.60;92.30;;;16.60;82.59;101134.47;5047727;28;20049;-86
2021/07/22 04:03:21;;;;;;;13.85;8.52;;;16.50;92.30;;;16.61;82.65;101136.19;5047571;28;20053;-86
2021/07/22 04:05:49;;;;;;;16.75;10.07;;;16.60;92.20;;;16.61;82.55;101136.19;5048773;28;20076;-82
2021/07/22 04:08:16;;;;;;;17.55;9.70;;;16.60;92.20;;;16.60;82.73;101134.47;5047402;28;20059;-86
2021/07/22 04:15:11;;;;;;;17.70;10.20;;;16.60;92.20;;;16.55;83.15;101148.03;5039897;22;20043;-89
2021/07/22 04:17:51;;;;;;;17.02;9.15;;;16.60;92.10;;;16.54;83.38;101132.56;5049043;28;20045;-89
2021/07/22 04:20:29;;;;;;;16.27;9.63;;;16.70;92.30;;;16.58;83.44;101142.09;5064003;28;20436;-89
2021/07/22 04:23:02;;;;;;;15.90;9.25;;;16.70;92.20;;;16.59;83.52;101141.03;5047824;28;20377;-90
2021/07/22 04:25:48;;;;;;;15.68;9.05;;;16.80;92.30;;;16.61;83.91;101136.19;5049261;28;20056;-89
2021/07/22 04:28:20;;;;;;;15.98;10.00;;;16.80;92.40;;;16.63;84.08;101141.47;5048237;28;20051;-89
2021/07/22 04:30:48;;;;;;;17.55;9.27;;;16.80;92.40;;;16.68;84.27;101141.69;5046946;28;20051;-89
2021/07/22 04:33:25;;;;;;;15.30;9.65;;;16.90;92.60;;;16.65;84.69;101137.47;5047820;28;20575;-89
2021/07/22 04:36:02;;;;;;;15.30;9.50;;;17.00;92.30;;;16.71;84.46;101146.75;5047442;28;20052;-90
2021/07/22 04:38:56;;;;;;;16.48;9.95;;;17.00;92.50;;;16.75;84.75;101143.41;5047172;28;20063;-89
2021/07/22 04:41:23;;;;;;;14.40;9.52;;;17.10;92.40;;;16.81;84.37;101144.44;5049075;28;20049;-89
2021/07/22 04:44:11;;;;;;;16.88;9.80;;;17.10;92.50;;;16.81;84.71;101153.56;5007791;28;20041;-90
2021/07/22 04:47:05;;;;;;;15.05;9.63;;;17.10;92.70;;;16.84;84.37;101151.47;5048275;28;20049;-89
2021/07/22 04:49:59;;;;;;;16.80;9.10;;;17.10;92.50;;;16.82;84.86;101154.41;5033599;28;20142;-89
2021/07/22 04:52:44;;;;;;;16.15;9.98;;;17.20;92.30;;;16.85;84.74;101143.00;5048037;28;20678;-89
2021/07/22 04:55:21;;;;;;;17.92;9.75;;;17.20;92.30;;;16.89;85.65;101155.28;5049311;28;20060;-88
2021/07/22 04:57:48;;;;;;;16.48;9.65;;;17.30;92.70;;;16.90;85.18;101145.97;5045846;28;20057;-89
2021/07/22 05:00:18;;;;;;;16.63;9.95;;;17.30;92.60;;;16.95;84.62;101154.44;5044450;28;20127;-89
2021/07/22 05:02:50;;;;;;;15.60;9.18;;;17.30;92.20;;;16.98;84.87;101150.41;5044615;28;20045;-89
2021/07/22 05:05:19;;;;;;;15.40;10.05;;;17.40;92.30;;;17.02;84.70;101151.69;5044233;28;20052;-88
2021/07/22 05:08:09;;;;;;;;;;;17.40;92.00;;;17.06;85.03;101149.34;5046150;28;20056;-88
2021/07/22 05:11:06;;;;;;;13.98;9.43;;;17.50;92.30;;;17.06;84.65;101143.84;5040813;28;19947;-88
2021/07/22 05:13:53;;;;;;;16.52;9.88;;;17.60;91.60;;;17.12;84.37;101151.25;5041220;28;20044;-88
2021/07/22 05:16:39;;;;;;;16.63;9.50;;;17.60;91.30;;;17.14;84.19;101147.22;5057421;28;20409;-89
2021/07/22 05:19:26;;;;;;;13.98;8.93;;;17.70;91.10;;;17.16;84.30;101147.88;5056446;28;20084;-88
2021/07/22 05:22:24;;;;;;;15.88;9.57;;;17.80;90.80;;;17.18;84.24;101148.50;5043206;28;20277;-88
2021/07/22 05:25:15;;;;;;;21.60;10.13;;;17.80;90.80;;;17.22;84.12;101150.84;5025967;28;20072;-89
2021/07/22 05:27:57;;;;;;;16.48;10.45;;;17.90;90.70;;;17.24;84.19;101141.28;5045882;28;20118;-90
2021/07/22 05:30:31;;;;;;;19.40;10.57;;;17.90;90.80;;;17.26;84.13;101141.09;5044418;28;20068;-89
2021/07/22 05:33:18;;;;;;;14.45;9.68;;;18.00;90.40;;;17.29;84.01;101143.41;5044989;28;20089;-90
2021/07/22 05:35:56;;;;;;;21.27;9.95;;;18.10;90.10;;;17.32;84.22;101145.72;5045648;28;20421;-89
2021/07/22 05:38:51;;;;;;;18.35;10.77;;;18.20;89.80;;;17.33;84.40;101139.19;5036636;28;20056;-90
2021/07/22 05:41:19;;;;;;;16.27;9.57;;;18.30;89.20;;;17.34;84.43;101140.84;5044057;28;20087;-90
2021/07/22 05:43:46;;;;;;;20.85;10.60;;;18.50;88.60;;;17.39;84.08;101133.66;5044496;28;20524;-89
2021/07/22 05:46:22;;;;;;;22.13;10.73;;;18.60;88.10;;;17.44;83.87;101141.28;5046360;28;20049;-91
2021/07/22 05:48:49;;;;;;;19.23;10.15;;;18.70;88.00;;;17.48;83.92;101137.03;5046707;28;20051;-90
2021/07/22 05:51:17;;;;;;;18.30;10.43;;;18.80;87.50;;;17.52;83.86;101132.78;5047178;28;20049;-91
2021/07/22 05:53:45;;;;;;;19.30;10.23;;;18.90;87.00;;;17.56;83.38;101138.72;5045110;28;20501;-92
2021/07/22 05:56:17;;;;;;;18.88;9.95;;;19.00;85.90;;;17.63;83.29;101139.53;5046168;28;20048;-91
2021/07/22 05:58:46;;;;;;;19.58;10.25;;;19.20;85.50;;;17.67;83.22;101140.78;5045282;28;20048;-91
2021/07/22 06:01:13;;;;;;;25.25;10.50;;;19.40;84.60;;;17.71;83.73;101135.72;5045459;28;20056;-92
2021/07/22 06:03:41;;;;;;;24.50;10.45;;;19.60;84.10;;;17.76;83.96;101139.50;5045760;28;20055;-91
2021/07/22 06:06:08;;;;;;;23.38;10.57;;;19.80;83.40;;;17.84;83.44;101140.31;5044917;28;20136;-91
2021/07/22 06:08:36;;;;;;;21.13;9.48;;;20.00;82.80;;;17.92;83.91;101132.69;5044773;28;20110;-92
2021/07/22 06:11:07;;;;;;;18.52;10.38;;;20.30;83.00;;;18.09;84.78;101134.94;5046497;28;20176;-92
2021/07/22 06:13:36;;;;;;;23.75;9.35;;;21.60;80.20;;;18.29;85.59;101143.09;5048311;28;20049;-92
2021/07/22 06:16:09;;;;;;;16.70;8.82;;;23.40;72.90;;;18.49;85.07;101140.25;5049586;28;20049;-92
2021/07/22 06:18:36;;;;;;;17.83;8.30;;;24.70;66.60;;;18.65;84.14;101131.41;5048151;28;20124;-92
2021/07/22 06:21:03;;;;;;;15.95;8.57;;;25.20;63.30;;;18.81;82.64;101140.25;5049563;28;20041;-91
2021/07/22 06:23:31;;;;;;;16.20;8.32;;;25.00;63.50;;;18.91;81.86;101135.09;5047528;28;20095;-92
2021/07/22 06:25:59;;;;;;;14.32;8.32;;;24.40;66.70;;;18.98;82.88;101132.25;5048455;28;20533;-93
2021/07/22 06:28:27;;;;;;;12.85;8.00;;;24.20;67.50;;;19.05;81.83;101136.66;5048299;28;20049;-92
2021/07/22 06:30:57;;;;;;;12.55;7.85;;;24.80;65.30;;;19.10;80.49;101136.81;5049172;28;20304;-92
2021/07/22 06:33:25;;;;;;;14.60;7.72;;;24.70;63.50;;;19.16;83.54;101131.47;5048304;28;20045;-92
2021/07/22 06:35:52;;;;;;;22.90;8.55;;;24.20;68.00;;;19.19;83.77;101136.53;5048767;28;20069;-92
2021/07/22 06:38:20;;;;;;;19.35;8.60;;;23.60;70.10;;;19.18;82.69;101135.69;5048346;28;20048;-93
2021/07/22 06:40:49;;;;;;;16.10;8.10;;;23.10;71.80;;;19.20;82.34;101138.22;5048061;28;20040;-92
2021/07/22 06:43:16;;;;;;;14.30;8.10;;;22.80;73.10;;;19.24;82.47;101134.78;5064372;28;20148;-92
2021/07/22 06:45:44;;;;;;;13.85;7.70;;;22.60;74.20;;;19.27;81.92;101139.00;5047569;28;20811;-93
2021/07/22 06:48:13;;;;;;;14.30;8.50;;;22.60;74.10;;;19.32;80.87;101134.50;5047658;28;20134;-93
2021/07/22 06:50:41;;;;;;;14.52;8.25;;;22.70;73.40;;;19.35;80.62;101133.19;5048692;28;20140;-92
2021/07/22 06:53:08;;;;;;;17.50;8.80;;;22.70;73.10;;;19.37;80.13;101131.03;5048594;28;20052;-93
2021/07/22 06:55:35;;;;;;;14.60;7.88;;;22.60;73.00;;;19.37;81.27;101132.97;5053468;28;20041;-91
2021/07/22 06:58:07;;;;;;;14.70;8.52;;;22.50;74.50;;;19.37;81.38;101133.81;5068679;28;20045;-92
2021/07/22 07:00:35;;;;;;;17.00;8.82;;;22.40;75.10;;;19.38;82.39;101131.88;5070459;28;20406;-92
2021/07/22 07:03:03;;;;;;;17.58;8.50;;;22.30;76.40;;;19.37;83.19;101139.31;5068139;28;20106;-92
2021/07/22 07:05:33;;;;;;;13.50;8.43;;;22.10;77.50;;;19.37;83.18;101135.72;5068566;28;20509;-93
2021/07/22 07:08:01;;;;;;;12.38;7.75;;;22.00;77.80;;;19.39;83.99;101142.69;5069019;28;20040;-92
2021/07/22 07:10:28;;;;;;;13.52;8.55;;;22.00;78.50;;;19.39;83.53;101141.88;5071740;28;20052;-93
2021/07/22 07:12:57;;;;;;;14.57;7.63;;;22.00;78.20;;;19.40;83.51;101143.53;5071607;28;20068;-92
2021/07/22 07:15:25;;;;;;;14.70;7.82;;;21.90;78.90;;;19.41;83.92;101140.56;5070218;28;20045;-91
2021/07/22 07:17:52;;;;;;;14.00;8.20;;;22.00;79.10;;;19.43;83.51;101146.69;5083494;28;20044;-92
2021/07/22 07:20:20;;;;;;;16.80;8.40;;;22.00;78.50;;;19.45;83.01;101146.47;5066270;28;20048;-92
2021/07/22 07:22:51;;;;;;;13.73;8.20;;;22.10;78.30;;;19.48;82.76;101146.84;5066685;28;20048;-92
2021/07/22 07:25:18;;;;;;;14.45;8.13;;;22.20;77.80;;;19.50;83.01;101147.47;5068362;28;20404;-92
2021/07/22 07:27:45;;;;;;;14.63;7.72;;;22.30;77.80;;;19.55;84.02;101149.53;5066444;28;20056;-91
2021/07/22 07:30:14;;;;;;;15.32;8.75;;;22.30;78.00;;;19.59;84.48;101141.63;5067236;28;20869;-92
2021/07/22 07:32:41;;;;;;;15.32;8.02;;;22.40;78.10;;;19.64;84.75;101144.56;5068245;28;20098;-91
2021/07/22 07:35:12;;;;;;;13.88;8.63;;;22.50;77.90;;;19.69;83.91;101140.03;5068305;28;20802;-91
2021/07/22 07:37:39;;;;;;;13.48;8.63;;;22.60;77.60;;;19.73;82.12;101144.06;5067588;28;20060;-91
2021/07/22 07:40:10;;;;;;;14.25;8.63;;;22.60;76.90;;;19.80;82.00;101144.00;5066768;28;20524;-91
2021/07/22 07:42:38;;;;;;;18.52;8.88;;;22.60;76.70;;;19.81;81.27;101145.66;5066920;28;20048;-91
2021/07/22 07:45:07;;;;;;;12.30;7.90;;;22.50;76.50;;;19.81;81.49;101148.44;5066390;28;20181;-91
2021/07/22 07:47:35;;;;;;;17.50;8.48;;;22.40;76.80;;;19.80;82.61;101149.53;5068832;28;20044;-91
2021/07/22 07:50:03;;;;;;;15.48;8.25;;;22.30;77.40;;;19.82;82.89;101144.59;5079724;22;20052;-83
2021/07/22 07:52:35;;;;;;;17.08;8.18;;;22.30;78.20;;;19.83;83.50;101142.69;5069047;28;20044;-84
2021/07/22 07:55:03;;;;;;;14.98;8.48;;;22.30;78.70;;;19.84;83.72;101145.22;5069121;28;20044;-83
2021/07/22 07:57:32;;;;;;;19.83;8.68;;;22.20;79.10;;;19.83;84.65;101149.03;5068158;28;20068;-84
2021/07/22 07:59:59;;;;;;;16.35;9.18;;;22.20;79.20;;;19.86;84.48;101143.06;5069878;28;20650;-83
2021/07/22 08:02:27;;;;;;;16.40;8.75;;;22.20;79.40;;;19.88;84.03;101149.19;5048592;28;20045;-85
2021/07/22 08:04:55;;;;;;;21.38;8.65;;;22.30;79.40;;;19.92;83.62;101146.81;5066256;28;20135;-85
2021/07/22 08:07:22;;;;;;;15.82;8.93;;;22.30;79.00;;;19.94;83.65;101143.84;5068161;28;20048;-85
2021/07/22 08:09:49;;;;;;;18.50;9.07;;;22.40;79.00;;;19.96;83.45;101144.44;5068552;28;20062;-85
2021/07/22 08:12:17;;;;;;;19.83;10.32;;;22.50;78.60;;;19.97;82.88;101143.34;5068403;28;20083;-84
2021/07/22 08:14:46;;;;;;;16.92;9.48;;;22.50;78.00;;;20.03;83.96;101142.41;5057166;28;20048;-85
2021/07/22 08:17:20;;;;;;;19.40;9.65;;;22.60;78.80;;;20.03;82.26;101143.28;5058805;28;20037;-85
2021/07/22 08:19:47;;;;;;;18.05;10.00;;;22.60;77.60;;;20.06;80.99;101141.97;5048860;28;20094;-83
2021/07/22 08:22:15;;;;;;;14.73;8.57;;;22.70;77.00;;;20.09;82.56;101144.28;5048454;28;20068;-81
2021/07/22 08:24:42;;;;;;;23.02;10.50;;;22.80;77.00;;;20.16;83.71;101142.25;5048852;28;20083;-81
2021/07/22 08:27:10;;;;;;;16.58;10.15;;;22.90;77.70;;;20.18;80.79;101134.59;5047688;28;20556;-82
2021/07/22 08:29:40;;;;;;;19.33;9.18;;;23.00;75.70;;;20.23;82.80;101134.72;5048398;28;20044;-81
2021/07/22 08:32:09;;;;;;;15.02;9.40;;;23.00;76.80;;;20.27;83.09;101135.94;5059723;28;20123;-82
2021/07/22 08:34:37;;;;;;;15.60;8.85;;;23.00;77.00;;;20.29;81.19;101135.69;5066213;28;20571;-82
2021/07/22 08:37:09;;;;;;;17.98;9.57;;;23.10;76.30;;;20.33;81.52;101141.59;5064614;28;20041;-84
2021/07/22 08:39:41;;;;;;;13.93;8.65;;;23.00;75.90;;;20.36;81.65;101135.63;5046673;28;20080;-85
2021/07/22 08:42:10;;;;;;;16.45;9.73;;;23.10;75.90;;;20.37;81.99;101137.28;5048261;28;20041;-88
2021/07/22 08:44:39;;;;;;;17.60;10.20;;;23.20;76.40;;;20.39;79.61;101137.91;5046786;28;20049;-87
2021/07/22 08:47:09;;;;;;;16.73;10.10;;;23.20;75.10;;;20.43;81.77;101133.63;5046448;28;20048;-87
2021/07/22 08:49:38;;;;;;;17.10;9.73;;;23.20;75.70;;;20.46;81.53;101135.88;5047034;28;20083;-87
2021/07/22 08:52:09;;;;;;;18.52;10.40;;;23.20;75.70;;;20.47;79.42;101132.91;5047889;28;20057;-86
2021/07/22 08:54:37;;;;;;;21.23;11.70;;;23.20;74.70;;;20.49;76.87;101144.56;5048466;28;20044;-87
2021/07/22 08:57:09;;;;;;;19.75;10.52;;;23.20;72.90;;;20.50;78.02;101137.97;5047469;28;20076;-87
2021/07/22 08:59:37;;;;;;;22.35;11.18;;;23.20;73.80;;;20.52;76.73;101140.47;5046883;28;20402;-86
2021/07/22 09:02:06;;;;;;;19.55;10.63;;;23.20;73.10;;;20.57;78.53;101142.53;5055549;28;20106;-87
2021/07/22 09:04:55;;;;;;;19.77;11.57;;;23.30;74.10;;;20.62;78.78;101138.03;5068336;28;20504;-86
2021/07/22 09:07:22;;;;;;;17.90;10.90;;;23.30;74.00;;;20.64;78.81;101137.78;5067342;28;20056;-86
2021/07/22 09:10:18;;;;;;;23.33;11.80;;;23.40;73.70;;;20.67;77.09;101138.13;5068167;28;20076;-87
2021/07/22 09:12:47;;;;;;;21.90;10.98;;;23.40;72.90;;;20.72;78.26;101139.38;5066779;28;20057;-86
2021/07/22 09:15:23;;;;;;;19.90;11.40;;;23.40;73.20;;;20.74;76.46;101131.69;5067889;28;20053;-86
2021/07/22 09:17:52;;;;;;;17.08;10.63;;;23.50;72.60;;;20.79;77.80;101124.34;5067484;28;20425;-86
2021/07/22 09:20:37;;;;;;;17.20;10.38;;;23.50;73.30;;;20.89;77.10;101132.06;5067911;28;20052;-86
2021/07/22 09:23:06;;;;;;;20.50;10.98;;;23.70;72.60;;;20.94;76.39;101134.94;5068271;28;20045;-86
2021/07/22 09:25:43;;;;;;;19.23;10.73;;;23.70;71.80;;;20.97;76.93;101131.72;5067844;28;20099;-87
2021/07/22 09:28:14;;;;;;;17.58;10.80;;;23.80;71.60;;;21.14;76.52;101131.00;5067524;28;20098;-86
2021/07/22 09:30:56;;;;;;;19.23;10.45;;;23.80;71.90;;;21.11;74.06;101126.78;5067748;28;20049;-86
2021/07/22 09:33:38;;;;;;;20.00;10.70;;;23.90;70.20;;;21.19;71.12;101136.66;5066541;28;20129;-86
2021/07/22 09:36:08;;;;;;;19.67;10.90;;;24.00;68.00;;;21.20;70.28;101133.66;5067058;28;20045;-86
2021/07/22 09:38:35;;;;;;;18.35;10.65;;;24.00;67.20;;;21.18;70.21;101134.97;5067855;28;20394;-86
2021/07/22 09:41:03;;;;;;;18.75;10.93;;;24.10;67.40;;;21.24;72.06;101128.47;5067723;28;20094;-86
2021/07/22 09:43:39;;;;;;;20.27;11.52;;;24.10;67.70;;;21.29;71.06;101132.22;5067616;28;20041;-86
2021/07/22 09:46:07;;;;;;;20.83;11.00;;;24.10;67.60;;;21.31;69.47;101126.44;5070573;28;20582;-82
2021/07/22 09:48:35;;;;;;;17.85;11.10;;;24.10;65.50;;;21.33;69.52;101123.44;5074328;22;20041;-86
2021/07/22 09:51:02;;;;;;;18.27;10.20;;;24.20;65.60;;;21.38;72.72;101123.53;5033583;28;20416;-86
2021/07/22 09:53:32;;;;;;;29.17;13.43;;;24.20;68.30;;;21.42;69.66;101122.81;5051003;28;20045;-86
2021/07/22 09:55:59;;;;;;;21.15;11.10;;;24.30;66.70;;;21.37;71.65;101114.38;5050897;28;20052;-86
2021/07/22 09:58:31;;;;;;;21.65;11.88;;;24.20;67.60;;;21.37;72.02;101122.69;5051406;28;20111;-86
2021/07/22 10:01:00;;;;;;;19.67;11.75;;;24.20;68.00;;;21.43;71.83;101118.13;5051353;28;20045;-86
2021/07/22 10:03:29;;;;;;;23.77;11.77;;;24.20;67.60;;;21.51;69.75;101116.94;5051422;28;20243;-86
2021/07/22 10:06:02;;;;;;;18.98;11.02;;;24.30;66.50;;;21.61;74.74;101114.38;5032424;28;20068;-85
2021/07/22 10:08:33;;;;;;;17.95;10.77;;;24.30;70.30;;;21.63;70.48;101112.22;5051150;28;20048;-86
2021/07/22 10:11:02;;;;;;;17.42;10.57;;;24.30;67.40;;;21.63;71.55;101112.22;5033187;28;20528;-85
2021/07/22 10:13:35;;;;;;;23.83;12.10;;;24.30;68.00;;;21.70;72.92;101112.91;5051180;28;20048;-86
2021/07/22 10:16:07;;;;;;;20.90;12.90;;;24.30;69.40;;;21.67;69.89;101105.94;5050410;28;20044;-86
2021/07/22 10:18:41;;;;;;;20.90;11.98;;;24.30;67.10;;;21.76;71.96;101105.56;5033124;28;20590;-86
2021/07/22 10:21:09;;;;;;;24.60;11.02;;;24.30;68.40;;;21.75;71.85;101099.19;5051008;28;20132;-86
2021/07/22 10:23:39;;;;;;;21.45;12.25;;;24.30;69.20;;;21.77;72.82;101102.56;5050752;28;20087;-86
2021/07/22 10:26:06;;;;;;;20.80;12.18;;;24.30;69.50;;;21.90;70.73;101101.44;5050485;28;20041;-86